PWSweather.com
Personal Weather Stations
Station Observations

SkegnessGB

Lat: 53.147585, Lon: 0.345774

Elevation: 18

Station Type: Fine Offset WH3080

http://www.skegnessweather.info/

High Low Average
Temperature 58.5°F14.7°F 49.6°F9.8°F 52.3°F11.3°F
Dew Point 47.7°F8.7°F 41.3°F5.2°F 45.0°F7.2°F
Winds 18.7 mph -30.1 mph - 5.8 mph 9.3 mph 11.2 mph 18.0 mph
Wind Gusts 20.9 mph33.6 mph 6.6 mph10.6 mph 12.3 mph19.8 mph
Humidity 86% 59% 76%
Pressure 29.51 in999.30 in 29.38 in994.90 in -
Precipitation 0.06 in1.50 in - -
Hour Temp Dew Point Humidity Winds Wind Gusts Pressure Precip Precip Rate Daily Precip Total
12:00 AM 51.4°F10.8°C 47.1°F8.4°C 85% 14.4 mph SE23.2 kmh SE 14.3 mph23.0 kmh 29.51 in999.3 mb 0.00 in0.0 mm 0.00 in0.0 mm 0.00 in0.0 mm
12:10 AM 51.3°F10.7°C 47.2°F8.4°C 86% 13.3 mph SSE21.4 kmh SSE 12.5 mph20.1 kmh 29.51 in999.3 mb 0.00 in0.0 mm 0.00 in0.0 mm 0.00 in0.0 mm
12:20 AM 51.1°F10.6°C 47.0°F8.3°C 86% 12.1 mph SE19.5 kmh SE 10.1 mph16.3 kmh 29.51 in999.3 mb 0.00 in0.0 mm 0.00 in0.0 mm 0.00 in0.0 mm
12:30 AM 51.3°F10.7°C 47.2°F8.4°C 86% 13.7 mph SE22.0 kmh SE 18.5 mph29.8 kmh 29.50 in999.0 mb 0.00 in0.0 mm 0.00 in0.0 mm 0.00 in0.0 mm
12:40 AM 51.6°F10.9°C 47.6°F8.7°C 86% 13.1 mph SSE21.1 kmh SSE 14.3 mph23.0 kmh 29.50 in999.0 mb 0.00 in0.0 mm 0.00 in0.0 mm 0.00 in0.0 mm
12:50 AM 51.6°F10.9°C 47.6°F8.7°C 86% 12.2 mph S19.6 kmh S 14.3 mph23.0 kmh 29.50 in999.0 mb 0.00 in0.0 mm 0.00 in0.0 mm 0.00 in0.0 mm
01:00 AM 51.8°F11.0°C 47.7°F8.7°C 86% 13.7 mph SE22.0 kmh SE 16.0 mph25.7 kmh 29.50 in999.0 mb 0.00 in0.0 mm 0.00 in0.0 mm 0.00 in0.0 mm
01:10 AM 51.8°F11.0°C 47.7°F8.7°C 86% 11.3 mph SE18.2 kmh SE 10.8 mph17.4 kmh 29.49 in998.6 mb 0.00 in0.0 mm 0.00 in0.0 mm 0.00 in0.0 mm
01:20 AM 51.6°F10.9°C 47.6°F8.7°C 86% 10.7 mph S17.2 kmh S 12.5 mph20.1 kmh 29.49 in998.6 mb 0.00 in0.0 mm 0.00 in0.0 mm 0.00 in0.0 mm
01:30 AM 51.6°F10.9°C 47.6°F8.7°C 86% 11.1 mph S17.9 kmh S 10.1 mph16.3 kmh 29.48 in998.3 mb 0.00 in0.0 mm 0.00 in0.0 mm 0.00 in0.0 mm
01:40 AM 51.4°F10.8°C 47.4°F8.6°C 86% 10.3 mph SSE16.6 kmh SSE 10.8 mph17.4 kmh 29.48 in998.3 mb 0.00 in0.0 mm 0.00 in0.0 mm 0.00 in0.0 mm
01:50 AM 51.3°F10.7°C 47.2°F8.4°C 86% 9.4 mph S15.1 kmh S 9.1 mph14.6 kmh 29.47 in998.0 mb 0.00 in0.0 mm 0.00 in0.0 mm 0.00 in0.0 mm
02:00 AM 51.4°F10.8°C 47.4°F8.6°C 86% 12.3 mph SE19.8 kmh SE 12.5 mph20.1 kmh 29.47 in998.0 mb 0.00 in0.0 mm 0.00 in0.0 mm 0.00 in0.0 mm
02:10 AM 51.3°F10.7°C 47.2°F8.4°C 86% 13.3 mph SSE21.4 kmh SSE 11.8 mph19.0 kmh 29.46 in997.6 mb 0.00 in0.0 mm 0.00 in0.0 mm 0.00 in0.0 mm
02:20 AM 51.4°F10.8°C 47.4°F8.6°C 86% 12.4 mph SSE20.0 kmh SSE 12.5 mph20.1 kmh 29.46 in997.6 mb 0.00 in0.0 mm 0.00 in0.0 mm 0.00 in0.0 mm
02:30 AM 51.4°F10.8°C 47.4°F8.6°C 86% 11.9 mph SSE19.2 kmh SSE 10.8 mph17.4 kmh 29.45 in997.3 mb 0.00 in0.0 mm 0.00 in0.0 mm 0.00 in0.0 mm
02:40 AM 51.6°F10.9°C 47.6°F8.7°C 86% 11.1 mph S17.9 kmh S 10.8 mph17.4 kmh 29.45 in997.3 mb 0.00 in0.0 mm 0.00 in0.0 mm 0.00 in0.0 mm
02:50 AM 51.6°F10.9°C 47.3°F8.5°C 85% 11.7 mph SSE18.8 kmh SSE 11.8 mph19.0 kmh 29.45 in997.3 mb 0.00 in0.0 mm 0.00 in0.0 mm 0.00 in0.0 mm
03:00 AM 51.6°F10.9°C 47.3°F8.5°C 85% 13.5 mph S21.7 kmh S 11.8 mph19.0 kmh 29.45 in997.3 mb 0.00 in0.0 mm 0.00 in0.0 mm 0.00 in0.0 mm
03:10 AM 51.4°F10.8°C 47.1°F8.4°C 85% 12.4 mph S20.0 kmh S 11.8 mph19.0 kmh 29.45 in997.3 mb 0.00 in0.0 mm 0.00 in0.0 mm 0.00 in0.0 mm
03:20 AM 51.3°F10.7°C 46.9°F8.3°C 85% 16.7 mph S26.9 kmh S 16.0 mph25.7 kmh 29.43 in996.6 mb 0.00 in0.0 mm 0.00 in0.0 mm 0.00 in0.0 mm
03:30 AM 50.9°F10.5°C 46.6°F8.1°C 85% 11.2 mph SSE18.0 kmh SSE 11.8 mph19.0 kmh 29.43 in996.6 mb 0.00 in0.0 mm 0.00 in0.0 mm 0.00 in0.0 mm
03:40 AM 50.7°F10.4°C 46.7°F8.2°C 86% 11.6 mph ESE18.7 kmh ESE 11.8 mph19.0 kmh 29.43 in996.6 mb 0.00 in0.0 mm 0.00 in0.0 mm 0.00 in0.0 mm
03:50 AM 50.5°F10.3°C 46.5°F8.1°C 86% 9.3 mph SSE15.0 kmh SSE 10.8 mph17.4 kmh 29.42 in996.3 mb 0.00 in0.0 mm 0.00 in0.0 mm 0.00 in0.0 mm
04:00 AM 50.5°F10.3°C 46.5°F8.1°C 86% 9.8 mph SE15.8 kmh SE 8.4 mph13.5 kmh 29.41 in995.9 mb 0.00 in0.0 mm 0.00 in0.0 mm 0.00 in0.0 mm
04:10 AM 50.4°F10.2°C 46.0°F7.8°C 85% 10.5 mph SE16.9 kmh SE 9.1 mph14.6 kmh 29.41 in995.9 mb 0.00 in0.0 mm 0.00 in0.0 mm 0.00 in0.0 mm
04:20 AM 50.2°F10.1°C 45.5°F7.5°C 84% 10.7 mph SSE17.2 kmh SSE 10.8 mph17.4 kmh 29.41 in995.9 mb 0.00 in0.0 mm 0.00 in0.0 mm 0.00 in0.0 mm
04:30 AM 50.2°F10.1°C 45.5°F7.5°C 84% 11.1 mph S17.9 kmh S 10.1 mph16.3 kmh 29.40 in995.6 mb 0.00 in0.0 mm 0.00 in0.0 mm 0.00 in0.0 mm
04:40 AM 50.4°F10.2°C 45.7°F7.6°C 84% 11.2 mph SSE18.0 kmh SSE 12.5 mph20.1 kmh 29.41 in995.9 mb 0.00 in0.0 mm 0.00 in0.0 mm 0.00 in0.0 mm
04:50 AM 50.4°F10.2°C 45.7°F7.6°C 84% 12.4 mph SSE20.0 kmh SSE 11.8 mph19.0 kmh 29.40 in995.6 mb 0.00 in0.0 mm 0.00 in0.0 mm 0.00 in0.0 mm
05:00 AM 50.4°F10.2°C 45.7°F7.6°C 84% 11.7 mph SSE18.8 kmh SSE 10.1 mph16.3 kmh 29.39 in995.3 mb 0.00 in0.0 mm 0.00 in0.0 mm 0.00 in0.0 mm
05:10 AM 50.5°F10.3°C 45.9°F7.7°C 84% 12.5 mph S20.1 kmh S 15.0 mph24.1 kmh 29.40 in995.6 mb 0.00 in0.0 mm 0.00 in0.0 mm 0.00 in0.0 mm
05:20 AM 50.4°F10.2°C 45.7°F7.6°C 84% 12.6 mph S20.3 kmh S 15.0 mph24.1 kmh 29.40 in995.6 mb 0.00 in0.0 mm 0.00 in0.0 mm 0.00 in0.0 mm
05:30 AM 50.4°F10.2°C 45.7°F7.6°C 84% 14.6 mph SSE23.5 kmh SSE 13.3 mph21.4 kmh 29.39 in995.3 mb 0.00 in0.0 mm 0.00 in0.0 mm 0.00 in0.0 mm
05:40 AM 50.5°F10.3°C 45.6°F7.6°C 83% 14.1 mph S22.7 kmh S 14.3 mph23.0 kmh 29.39 in995.3 mb 0.00 in0.0 mm 0.00 in0.0 mm 0.00 in0.0 mm
05:50 AM 50.5°F10.3°C 45.6°F7.6°C 83% 13.7 mph SE22.0 kmh SE 14.3 mph23.0 kmh 29.38 in994.9 mb 0.00 in0.0 mm 0.00 in0.0 mm 0.00 in0.0 mm
06:00 AM 50.5°F10.3°C 45.6°F7.6°C 83% 11.5 mph SE18.5 kmh SE 10.8 mph17.4 kmh 29.38 in994.9 mb 0.00 in0.0 mm 0.00 in0.0 mm 0.00 in0.0 mm
06:10 AM 50.5°F10.3°C 45.6°F7.6°C 83% 12.3 mph S19.8 kmh S 10.8 mph17.4 kmh 29.38 in994.9 mb 0.00 in0.0 mm 0.00 in0.0 mm 0.00 in0.0 mm
06:20 AM 50.5°F10.3°C 45.6°F7.6°C 83% 12.0 mph S19.3 kmh S 10.8 mph17.4 kmh 29.38 in994.9 mb 0.00 in0.0 mm 0.00 in0.0 mm 0.00 in0.0 mm
06:30 AM 50.5°F10.3°C 45.6°F7.6°C 83% 11.1 mph SE17.9 kmh SE 14.3 mph23.0 kmh 29.38 in994.9 mb 0.00 in0.0 mm 0.00 in0.0 mm 0.00 in0.0 mm
06:40 AM 50.5°F10.3°C 45.9°F7.7°C 84% 11.3 mph S18.2 kmh S 12.5 mph20.1 kmh 29.38 in994.9 mb 0.00 in0.0 mm 0.00 in0.0 mm 0.00 in0.0 mm
06:50 AM 50.5°F10.3°C 45.6°F7.6°C 83% 9.9 mph SSW15.9 kmh SSW 10.8 mph17.4 kmh 29.38 in994.9 mb 0.00 in0.0 mm 0.00 in0.0 mm 0.00 in0.0 mm
07:00 AM 50.5°F10.3°C 45.6°F7.6°C 83% 12.5 mph S20.1 kmh S 15.0 mph24.1 kmh 29.39 in995.3 mb 0.00 in0.0 mm 0.00 in0.0 mm 0.00 in0.0 mm
07:10 AM 50.5°F10.3°C 45.6°F7.6°C 83% 9.3 mph S15.0 kmh S 10.1 mph16.3 kmh 29.38 in994.9 mb 0.00 in0.0 mm 0.00 in0.0 mm 0.00 in0.0 mm
07:20 AM 50.5°F10.3°C 45.6°F7.6°C 83% 8.4 mph S13.5 kmh S 9.1 mph14.6 kmh 29.38 in994.9 mb 0.00 in0.0 mm 0.00 in0.0 mm 0.00 in0.0 mm
07:30 AM 50.4°F10.2°C 45.4°F7.4°C 83% 8.3 mph S13.4 kmh S 7.6 mph12.2 kmh 29.39 in995.3 mb 0.00 in0.0 mm 0.00 in0.0 mm 0.00 in0.0 mm
07:40 AM 50.4°F10.2°C 45.7°F7.6°C 84% 6.9 mph SSW11.1 kmh SSW 8.4 mph13.5 kmh 29.39 in995.3 mb 0.00 in0.0 mm 0.00 in0.0 mm 0.00 in0.0 mm
07:50 AM 50.2°F10.1°C 45.5°F7.5°C 84% 8.7 mph SW14.0 kmh SW 9.1 mph14.6 kmh 29.39 in995.3 mb 0.00 in0.0 mm 0.00 in0.0 mm 0.00 in0.0 mm
08:00 AM 50.4°F10.2°C 45.7°F7.6°C 84% 9.5 mph S15.3 kmh S 10.8 mph17.4 kmh 29.39 in995.3 mb 0.00 in0.0 mm 0.00 in0.0 mm 0.00 in0.0 mm
08:10 AM 50.2°F10.1°C 45.5°F7.5°C 84% 7.1 mph S11.4 kmh S 7.6 mph12.2 kmh 29.39 in995.3 mb 0.00 in0.0 mm 0.00 in0.0 mm 0.00 in0.0 mm
08:20 AM 50.2°F10.1°C 45.5°F7.5°C 84% 8.0 mph SW12.9 kmh SW 10.1 mph16.3 kmh 29.38 in994.9 mb 0.00 in0.0 mm 0.00 in0.0 mm 0.00 in0.0 mm
08:30 AM 50.2°F10.1°C 45.8°F7.7°C 85% 7.5 mph WSW12.1 kmh WSW 7.6 mph12.2 kmh 29.39 in995.3 mb 0.00 in0.0 mm 0.00 in0.0 mm 0.00 in0.0 mm
08:40 AM 50.2°F10.1°C 45.8°F7.7°C 85% 7.5 mph SSE12.1 kmh SSE 8.4 mph13.5 kmh 29.39 in995.3 mb 0.00 in0.0 mm 0.00 in0.0 mm 0.00 in0.0 mm
08:50 AM 50.0°F10.0°C 45.7°F7.6°C 85% 8.7 mph SSE14.0 kmh SSE 10.1 mph16.3 kmh 29.40 in995.6 mb 0.00 in0.0 mm 0.00 in0.0 mm 0.00 in0.0 mm
09:00 AM 50.2°F10.1°C 45.5°F7.5°C 84% 8.0 mph S12.9 kmh S 8.4 mph13.5 kmh 29.40 in995.6 mb 0.00 in0.0 mm 0.00 in0.0 mm 0.00 in0.0 mm
09:10 AM 50.2°F10.1°C 45.5°F7.5°C 84% 8.0 mph WNW12.9 kmh WNW 9.1 mph14.6 kmh 29.40 in995.6 mb 0.00 in0.0 mm 0.00 in0.0 mm 0.00 in0.0 mm
09:20 AM 50.5°F10.3°C 46.2°F7.9°C 85% 8.6 mph S13.8 kmh S 10.1 mph16.3 kmh 29.40 in995.6 mb 0.00 in0.0 mm 0.00 in0.0 mm 0.00 in0.0 mm
09:30 AM 52.2°F11.2°C 47.5°F8.6°C 84% 8.2 mph SE13.2 kmh SE 10.1 mph16.3 kmh 29.40 in995.6 mb 0.00 in0.0 mm 0.00 in0.0 mm 0.00 in0.0 mm
09:40 AM 54.0°F12.2°C 47.3°F8.5°C 78% 7.9 mph SW12.7 kmh SW 10.8 mph17.4 kmh 29.40 in995.6 mb 0.00 in0.0 mm 0.00 in0.0 mm 0.00 in0.0 mm
09:50 AM 54.1°F12.3°C 45.3°F7.4°C 72% 9.2 mph SSW14.8 kmh SSW 10.8 mph17.4 kmh 29.40 in995.6 mb 0.00 in0.0 mm 0.00 in0.0 mm 0.00 in0.0 mm
10:00 AM 55.4°F13.0°C 46.2°F7.9°C 71% 9.4 mph SE15.1 kmh SE 9.1 mph14.6 kmh 29.40 in995.6 mb 0.00 in0.0 mm 0.00 in0.0 mm 0.00 in0.0 mm
10:10 AM 54.9°F12.7°C 44.1°F6.7°C 67% 7.9 mph SSW12.7 kmh SSW 11.8 mph19.0 kmh 29.40 in995.6 mb 0.00 in0.0 mm 0.00 in0.0 mm 0.00 in0.0 mm
10:20 AM 56.8°F13.8°C 46.0°F7.8°C 67% 8.5 mph S13.7 kmh S 10.1 mph16.3 kmh 29.40 in995.6 mb 0.00 in0.0 mm 0.00 in0.0 mm 0.00 in0.0 mm
10:30 AM 56.8°F13.8°C 45.2°F7.3°C 65% 9.2 mph SSW14.8 kmh SSW 10.8 mph17.4 kmh 29.41 in995.9 mb 0.01 in0.3 mm 0.06 in1.5 mm 0.01 in0.3 mm
10:40 AM 56.8°F13.8°C 44.8°F7.1°C 64% 9.1 mph SW14.6 kmh SW 10.8 mph17.4 kmh 29.40 in995.6 mb 0.01 in0.3 mm 0.00 in0.0 mm 0.01 in0.3 mm
10:50 AM 57.7°F14.3°C 45.2°F7.3°C 63% 9.3 mph SW15.0 kmh SW 10.1 mph16.3 kmh 29.40 in995.6 mb 0.01 in0.3 mm 0.00 in0.0 mm 0.01 in0.3 mm
11:00 AM 57.4°F14.1°C 44.5°F6.9°C 62% 9.9 mph SW15.9 kmh SW 10.8 mph17.4 kmh 29.40 in995.6 mb 0.01 in0.3 mm 0.00 in0.0 mm 0.01 in0.3 mm
11:10 AM 57.4°F14.1°C 44.9°F7.2°C 63% 10.5 mph S16.9 kmh S 10.1 mph16.3 kmh 29.40 in995.6 mb 0.01 in0.3 mm 0.00 in0.0 mm 0.01 in0.3 mm
11:20 AM 58.1°F14.5°C 46.4°F8.0°C 65% 9.9 mph SW15.9 kmh SW 13.3 mph21.4 kmh 29.40 in995.6 mb 0.01 in0.3 mm 0.00 in0.0 mm 0.01 in0.3 mm
11:30 AM 57.2°F14.0°C 44.3°F6.8°C 62% 12.8 mph S20.6 kmh S 12.5 mph20.1 kmh 29.41 in995.9 mb 0.00 in0.0 mm 0.00 in0.0 mm 0.01 in0.3 mm
11:40 AM 57.9°F14.4°C 45.4°F7.4°C 63% 13.2 mph SW21.2 kmh SW 14.3 mph23.0 kmh 29.40 in995.6 mb 0.00 in0.0 mm 0.00 in0.0 mm 0.01 in0.3 mm
11:50 AM 57.7°F14.3°C 44.4°F6.9°C 61% 14.6 mph WSW23.5 kmh WSW 18.5 mph29.8 kmh 29.40 in995.6 mb 0.00 in0.0 mm 0.00 in0.0 mm 0.01 in0.3 mm
12:00 PM 57.6°F14.2°C 45.1°F7.3°C 63% 13.1 mph SW21.1 kmh SW 18.5 mph29.8 kmh 29.40 in995.6 mb 0.00 in0.0 mm 0.00 in0.0 mm 0.01 in0.3 mm
12:10 PM 58.5°F14.7°C 45.5°F7.5°C 62% 10.9 mph SE17.5 kmh SE 15.0 mph24.1 kmh 29.40 in995.6 mb 0.00 in0.0 mm 0.00 in0.0 mm 0.01 in0.3 mm
12:20 PM 58.3°F14.6°C 44.9°F7.2°C 61% 11.4 mph S18.3 kmh S 12.5 mph20.1 kmh 29.40 in995.6 mb 0.00 in0.0 mm 0.00 in0.0 mm 0.01 in0.3 mm
12:30 PM 58.5°F14.7°C 45.1°F7.3°C 61% 11.9 mph SSE19.2 kmh SSE 14.3 mph23.0 kmh 29.40 in995.6 mb 0.00 in0.0 mm 0.00 in0.0 mm 0.01 in0.3 mm
12:40 PM 57.2°F14.0°C 43.9°F6.6°C 61% 11.0 mph S17.7 kmh S 11.8 mph19.0 kmh 29.40 in995.6 mb 0.00 in0.0 mm 0.00 in0.0 mm 0.01 in0.3 mm
12:50 PM 57.9°F14.4°C 44.5°F6.9°C 61% 11.2 mph S18.0 kmh S 13.3 mph21.4 kmh 29.40 in995.6 mb 0.00 in0.0 mm 0.00 in0.0 mm 0.01 in0.3 mm
01:00 PM 58.5°F14.7°C 44.6°F7.0°C 60% 10.2 mph S16.4 kmh S 17.5 mph28.2 kmh 29.40 in995.6 mb 0.00 in0.0 mm 0.00 in0.0 mm 0.01 in0.3 mm
01:10 PM 57.0°F13.9°C 42.8°F6.0°C 59% 13.0 mph WSW20.9 kmh WSW 15.0 mph24.1 kmh 29.40 in995.6 mb 0.00 in0.0 mm 0.00 in0.0 mm 0.01 in0.3 mm
01:20 PM 57.4°F14.1°C 43.2°F6.2°C 59% 14.7 mph S23.7 kmh S 17.5 mph28.2 kmh 29.40 in995.6 mb 0.00 in0.0 mm 0.00 in0.0 mm 0.01 in0.3 mm
01:30 PM 57.4°F14.1°C 43.2°F6.2°C 59% 12.4 mph SW20.0 kmh SW 14.3 mph23.0 kmh 29.41 in995.9 mb 0.00 in0.0 mm 0.00 in0.0 mm 0.01 in0.3 mm
01:40 PM 57.0°F13.9°C 43.3°F6.3°C 60% 11.1 mph SSW17.9 kmh SSW 14.3 mph23.0 kmh 29.41 in995.9 mb 0.00 in0.0 mm 0.00 in0.0 mm 0.01 in0.3 mm
01:50 PM 57.2°F14.0°C 43.4°F6.3°C 60% 10.2 mph SE16.4 kmh SE 11.8 mph19.0 kmh 29.41 in995.9 mb 0.00 in0.0 mm 0.00 in0.0 mm 0.01 in0.3 mm
02:00 PM 56.5°F13.6°C 42.8°F6.0°C 60% 12.3 mph WSW19.8 kmh WSW 13.3 mph21.4 kmh 29.41 in995.9 mb 0.00 in0.0 mm 0.00 in0.0 mm 0.01 in0.3 mm
02:10 PM 56.5°F13.6°C 43.2°F6.2°C 61% 9.7 mph S15.6 kmh S 9.1 mph14.6 kmh 29.41 in995.9 mb 0.00 in0.0 mm 0.00 in0.0 mm 0.01 in0.3 mm
02:20 PM 56.3°F13.5°C 43.4°F6.3°C 62% 9.4 mph SW15.1 kmh SW 12.5 mph20.1 kmh 29.40 in995.6 mb 0.00 in0.0 mm 0.00 in0.0 mm 0.01 in0.3 mm
02:30 PM 55.6°F13.1°C 43.6°F6.4°C 64% 12.3 mph SW19.8 kmh SW 16.7 mph26.9 kmh 29.41 in995.9 mb 0.00 in0.0 mm 0.00 in0.0 mm 0.01 in0.3 mm
02:40 PM 54.5°F12.5°C 44.9°F7.2°C 70% 11.6 mph S18.7 kmh S 13.3 mph21.4 kmh 29.41 in995.9 mb 0.00 in0.0 mm 0.00 in0.0 mm 0.01 in0.3 mm
02:50 PM 54.5°F12.5°C 44.9°F7.2°C 70% 9.8 mph SSW15.8 kmh SSW 10.8 mph17.4 kmh 29.42 in996.3 mb 0.00 in0.0 mm 0.00 in0.0 mm 0.01 in0.3 mm
03:00 PM 54.5°F12.5°C 44.9°F7.2°C 70% 12.7 mph S20.4 kmh S 13.3 mph21.4 kmh 29.41 in995.9 mb 0.00 in0.0 mm 0.00 in0.0 mm 0.01 in0.3 mm
03:10 PM 54.5°F12.5°C 44.9°F7.2°C 70% 9.8 mph SW15.8 kmh SW 10.8 mph17.4 kmh 29.41 in995.9 mb 0.00 in0.0 mm 0.00 in0.0 mm 0.01 in0.3 mm
03:20 PM 54.3°F12.4°C 44.0°F6.7°C 68% 8.9 mph S14.3 kmh S 10.1 mph16.3 kmh 29.42 in996.3 mb 0.00 in0.0 mm 0.00 in0.0 mm 0.01 in0.3 mm
03:30 PM 54.1°F12.3°C 42.2°F5.7°C 64% 11.1 mph SW17.9 kmh SW 13.3 mph21.4 kmh 29.41 in995.9 mb 0.00 in0.0 mm 0.00 in0.0 mm 0.01 in0.3 mm
03:40 PM 53.8°F12.1°C 42.3°F5.7°C 65% 8.5 mph SSE13.7 kmh SSE 10.1 mph16.3 kmh 29.41 in995.9 mb 0.00 in0.0 mm 0.00 in0.0 mm 0.01 in0.3 mm
03:50 PM 53.6°F12.0°C 42.1°F5.6°C 65% 8.7 mph SSE14.0 kmh SSE 11.8 mph19.0 kmh 29.41 in995.9 mb 0.00 in0.0 mm 0.00 in0.0 mm 0.01 in0.3 mm
04:00 PM 53.4°F11.9°C 43.9°F6.6°C 70% 7.9 mph SW12.7 kmh SW 7.6 mph12.2 kmh 29.42 in996.3 mb 0.00 in0.0 mm 0.00 in0.0 mm 0.01 in0.3 mm
04:10 PM 52.9°F11.6°C 43.7°F6.5°C 71% 8.1 mph WNW13.0 kmh WNW 10.1 mph16.3 kmh 29.41 in995.9 mb 0.00 in0.0 mm 0.00 in0.0 mm 0.01 in0.3 mm
04:20 PM 52.5°F11.4°C 43.4°F6.3°C 71% 9.3 mph SW15.0 kmh SW 9.1 mph14.6 kmh 29.42 in996.3 mb 0.00 in0.0 mm 0.00 in0.0 mm 0.01 in0.3 mm
04:30 PM 52.2°F11.2°C 43.0°F6.1°C 71% 6.8 mph SW10.9 kmh SW 10.1 mph16.3 kmh 29.42 in996.3 mb 0.00 in0.0 mm 0.00 in0.0 mm 0.01 in0.3 mm
04:40 PM 51.6°F10.9°C 42.5°F5.8°C 71% 6.9 mph SSE11.1 kmh SSE 8.4 mph13.5 kmh 29.42 in996.3 mb 0.00 in0.0 mm 0.00 in0.0 mm 0.01 in0.3 mm
04:50 PM 51.1°F10.6°C 42.0°F5.6°C 71% 6.6 mph SSW10.6 kmh SSW 8.4 mph13.5 kmh 29.42 in996.3 mb 0.00 in0.0 mm 0.00 in0.0 mm 0.01 in0.3 mm
05:00 PM 50.5°F10.3°C 41.8°F5.4°C 72% 5.8 mph SSE9.3 kmh SSE 7.6 mph12.2 kmh 29.42 in996.3 mb 0.00 in0.0 mm 0.00 in0.0 mm 0.01 in0.3 mm
05:10 PM 50.2°F10.1°C 41.5°F5.3°C 72% 6.4 mph SSW10.3 kmh SSW 8.4 mph13.5 kmh 29.43 in996.6 mb 0.00 in0.0 mm 0.00 in0.0 mm 0.01 in0.3 mm
05:20 PM 50.0°F10.0°C 41.3°F5.2°C 72% 6.3 mph S10.1 kmh S 6.6 mph10.6 kmh 29.42 in996.3 mb 0.00 in0.0 mm 0.00 in0.0 mm 0.01 in0.3 mm
05:30 PM 49.8°F9.9°C 41.5°F5.3°C 73% 8.3 mph SE13.4 kmh SE 8.4 mph13.5 kmh 29.42 in996.3 mb 0.00 in0.0 mm 0.00 in0.0 mm 0.01 in0.3 mm
05:40 PM 49.8°F9.9°C 41.9°F5.5°C 74% 7.1 mph SSE11.4 kmh SSE 6.6 mph10.6 kmh 29.43 in996.6 mb 0.00 in0.0 mm 0.00 in0.0 mm 0.01 in0.3 mm
05:50 PM 49.6°F9.8°C 41.7°F5.4°C 74% 7.2 mph S11.6 kmh S 7.6 mph12.2 kmh 29.42 in996.3 mb 0.00 in0.0 mm 0.00 in0.0 mm 0.01 in0.3 mm
06:00 PM 49.6°F9.8°C 42.0°F5.6°C 75% 7.5 mph SE12.1 kmh SE 6.6 mph10.6 kmh 29.42 in996.3 mb 0.00 in0.0 mm 0.00 in0.0 mm 0.01 in0.3 mm
06:10 PM 49.8°F9.9°C 42.2°F5.7°C 75% 9.3 mph S15.0 kmh S 9.1 mph14.6 kmh 29.42 in996.3 mb 0.00 in0.0 mm 0.00 in0.0 mm 0.01 in0.3 mm
06:20 PM 49.8°F9.9°C 42.6°F5.9°C 76% 8.5 mph SSE13.7 kmh SSE 10.1 mph16.3 kmh 29.42 in996.3 mb 0.00 in0.0 mm 0.00 in0.0 mm 0.01 in0.3 mm
06:30 PM 50.0°F10.0°C 43.1°F6.2°C 77% 9.6 mph S15.4 kmh S 10.8 mph17.4 kmh 29.42 in996.3 mb 0.00 in0.0 mm 0.00 in0.0 mm 0.01 in0.3 mm
06:40 PM 50.2°F10.1°C 43.6°F6.4°C 78% 10.4 mph SE16.7 kmh SE 10.8 mph17.4 kmh 29.42 in996.3 mb 0.00 in0.0 mm 0.00 in0.0 mm 0.01 in0.3 mm
06:50 PM 50.7°F10.4°C 44.1°F6.7°C 78% 12.8 mph SSE20.6 kmh SSE 14.3 mph23.0 kmh 29.42 in996.3 mb 0.00 in0.0 mm 0.00 in0.0 mm 0.01 in0.3 mm
07:00 PM 51.1°F10.6°C 44.1°F6.7°C 77% 14.7 mph S23.7 kmh S 16.7 mph26.9 kmh 29.41 in995.9 mb 0.00 in0.0 mm 0.00 in0.0 mm 0.01 in0.3 mm
07:10 PM 50.9°F10.5°C 43.9°F6.6°C 77% 18.7 mph SE30.1 kmh SE 16.7 mph26.9 kmh 29.41 in995.9 mb 0.00 in0.0 mm 0.00 in0.0 mm 0.01 in0.3 mm
07:20 PM 50.9°F10.5°C 44.3°F6.8°C 78% 12.2 mph S19.6 kmh S 11.8 mph19.0 kmh 29.41 in995.9 mb 0.00 in0.0 mm 0.00 in0.0 mm 0.01 in0.3 mm
07:30 PM 51.1°F10.6°C 44.5°F6.9°C 78% 12.5 mph SE20.1 kmh SE 11.8 mph19.0 kmh 29.41 in995.9 mb 0.00 in0.0 mm 0.00 in0.0 mm 0.01 in0.3 mm
07:40 PM 51.3°F10.7°C 44.6°F7.0°C 78% 14.0 mph SSE22.5 kmh SSE 15.0 mph24.1 kmh 29.41 in995.9 mb 0.00 in0.0 mm 0.00 in0.0 mm 0.01 in0.3 mm
07:50 PM 51.4°F10.8°C 44.8°F7.1°C 78% 15.0 mph SE24.1 kmh SE 15.0 mph24.1 kmh 29.41 in995.9 mb 0.00 in0.0 mm 0.00 in0.0 mm 0.01 in0.3 mm
08:00 PM 51.6°F10.9°C 45.0°F7.2°C 78% 16.1 mph S25.9 kmh S 19.2 mph30.9 kmh 29.41 in995.9 mb 0.00 in0.0 mm 0.00 in0.0 mm 0.01 in0.3 mm
08:10 PM 51.8°F11.0°C 45.2°F7.3°C 78% 16.7 mph S26.9 kmh S 14.3 mph23.0 kmh 29.41 in995.9 mb 0.00 in0.0 mm 0.00 in0.0 mm 0.01 in0.3 mm
08:20 PM 52.0°F11.1°C 45.3°F7.4°C 78% 15.8 mph S25.4 kmh S 16.7 mph26.9 kmh 29.41 in995.9 mb 0.00 in0.0 mm 0.00 in0.0 mm 0.01 in0.3 mm
08:30 PM 52.0°F11.1°C 45.0°F7.2°C 77% 15.9 mph S25.6 kmh S 20.9 mph33.6 kmh 29.41 in995.9 mb 0.00 in0.0 mm 0.00 in0.0 mm 0.01 in0.3 mm
08:40 PM 52.0°F11.1°C 45.0°F7.2°C 77% 14.8 mph SSE23.8 kmh SSE 16.0 mph25.7 kmh 29.41 in995.9 mb 0.00 in0.0 mm 0.00 in0.0 mm 0.01 in0.3 mm
08:50 PM 52.0°F11.1°C 45.3°F7.4°C 78% 17.2 mph SSE27.7 kmh SSE 16.7 mph26.9 kmh 29.41 in995.9 mb 0.00 in0.0 mm 0.00 in0.0 mm 0.01 in0.3 mm
09:00 PM 52.0°F11.1°C 45.0°F7.2°C 77% 16.5 mph S26.6 kmh S 16.0 mph25.7 kmh 29.41 in995.9 mb 0.00 in0.0 mm 0.00 in0.0 mm 0.01 in0.3 mm
09:10 PM 51.8°F11.0°C 44.5°F6.9°C 76% 14.5 mph SW23.3 kmh SW 16.7 mph26.9 kmh 29.41 in995.9 mb 0.00 in0.0 mm 0.00 in0.0 mm 0.01 in0.3 mm
09:20 PM 51.4°F10.8°C 44.1°F6.7°C 76% 14.7 mph S23.7 kmh S 18.5 mph29.8 kmh 29.40 in995.6 mb 0.00 in0.0 mm 0.00 in0.0 mm 0.01 in0.3 mm
09:30 PM 51.1°F10.6°C 43.8°F6.6°C 76% 11.2 mph SSW18.0 kmh SSW 11.8 mph19.0 kmh 29.41 in995.9 mb 0.00 in0.0 mm 0.00 in0.0 mm 0.01 in0.3 mm
09:40 PM 50.7°F10.4°C 43.1°F6.2°C 75% 11.0 mph SSW17.7 kmh SSW 11.8 mph19.0 kmh 29.40 in995.6 mb 0.00 in0.0 mm 0.00 in0.0 mm 0.01 in0.3 mm
09:50 PM 50.2°F10.1°C 42.6°F5.9°C 75% 10.7 mph SSE17.2 kmh SSE 11.8 mph19.0 kmh 29.40 in995.6 mb 0.00 in0.0 mm 0.00 in0.0 mm 0.01 in0.3 mm
10:00 PM 50.2°F10.1°C 42.9°F6.1°C 76% 11.2 mph SSE18.0 kmh SSE 11.8 mph19.0 kmh 29.40 in995.6 mb 0.00 in0.0 mm 0.00 in0.0 mm 0.01 in0.3 mm
10:10 PM 50.7°F10.4°C 44.1°F6.7°C 78% 12.5 mph S20.1 kmh S 14.3 mph23.0 kmh 29.40 in995.6 mb 0.00 in0.0 mm 0.00 in0.0 mm 0.01 in0.3 mm
10:20 PM 50.9°F10.5°C 44.9°F7.2°C 80% 14.0 mph S22.5 kmh S 14.3 mph23.0 kmh 29.40 in995.6 mb 0.00 in0.0 mm 0.00 in0.0 mm 0.01 in0.3 mm
10:30 PM 51.1°F10.6°C 45.1°F7.3°C 80% 14.8 mph S23.8 kmh S 14.3 mph23.0 kmh 29.40 in995.6 mb 0.00 in0.0 mm 0.00 in0.0 mm 0.01 in0.3 mm
10:40 PM 51.1°F10.6°C 45.1°F7.3°C 80% 13.1 mph S21.1 kmh S 14.3 mph23.0 kmh 29.39 in995.3 mb 0.00 in0.0 mm 0.00 in0.0 mm 0.01 in0.3 mm
10:50 PM 50.9°F10.5°C 44.9°F7.2°C 80% 14.9 mph S24.0 kmh S 14.3 mph23.0 kmh 29.40 in995.6 mb 0.00 in0.0 mm 0.00 in0.0 mm 0.01 in0.3 mm
11:00 PM 50.7°F10.4°C 44.8°F7.1°C 80% 15.5 mph S24.9 kmh S 16.0 mph25.7 kmh 29.40 in995.6 mb 0.00 in0.0 mm 0.00 in0.0 mm 0.01 in0.3 mm
11:10 PM 50.5°F10.3°C 44.6°F7.0°C 80% 14.0 mph SE22.5 kmh SE 16.0 mph25.7 kmh 29.40 in995.6 mb 0.00 in0.0 mm 0.00 in0.0 mm 0.01 in0.3 mm
11:20 PM 50.4°F10.2°C 44.7°F7.1°C 81% 13.9 mph S22.4 kmh S 15.0 mph24.1 kmh 29.39 in995.3 mb 0.00 in0.0 mm 0.00 in0.0 mm 0.01 in0.3 mm
11:30 PM 50.4°F10.2°C 44.7°F7.1°C 81% 13.3 mph S21.4 kmh S 16.0 mph25.7 kmh 29.40 in995.6 mb 0.00 in0.0 mm 0.00 in0.0 mm 0.01 in0.3 mm
11:40 PM 50.2°F10.1°C 44.6°F7.0°C 81% 13.8 mph S22.2 kmh S 16.7 mph26.9 kmh 29.40 in995.6 mb 0.00 in0.0 mm 0.00 in0.0 mm 0.01 in0.3 mm
11:50 PM 50.2°F10.1°C 44.9°F7.2°C 82% 13.4 mph SE21.6 kmh SE 16.7 mph26.9 kmh 29.39 in995.3 mb 0.00 in0.0 mm 0.00 in0.0 mm 0.01 in0.3 mm